createdAt,value
2023-04-09T00:00:23.313Z,51.60
2023-04-09T00:02:52.645Z,51.40
2023-04-09T00:05:21.853Z,57.08
2023-04-09T00:07:51.204Z,59.42
2023-04-09T00:10:21.640Z,41.65
2023-04-09T00:12:52.188Z,49.08
2023-04-09T00:15:30.738Z,48.38
2023-04-09T00:18:01.243Z,48.30
2023-04-09T00:20:30.557Z,48.50
2023-04-09T00:23:00.055Z,47.80
2023-04-09T00:25:29.768Z,40.30
2023-04-09T00:28:00.247Z,47.00
2023-04-09T00:30:30.411Z,45.88
2023-04-09T00:32:59.349Z,50.15
2023-04-09T00:35:28.734Z,45.72
2023-04-09T00:37:58.209Z,51.75
2023-04-09T00:40:27.328Z,50.95
2023-04-09T00:42:57.051Z,56.78
2023-04-09T00:45:27.647Z,56.53
2023-04-09T00:47:56.891Z,53.53
2023-04-09T00:50:26.122Z,52.08
2023-04-09T00:52:55.293Z,56.65
2023-04-09T00:55:24.530Z,49.45
2023-04-09T00:57:53.586Z,54.17
2023-04-09T01:00:23.363Z,49.30
2023-04-09T01:02:54.017Z,51.92
2023-04-09T01:05:23.192Z,56.95
2023-04-09T01:07:57.411Z,48.58
2023-04-09T01:10:30.649Z,60.67
2023-04-09T01:13:05.907Z,58.15
2023-04-09T01:15:36.895Z,63.00
2023-04-09T01:18:13.533Z,49.78
2023-04-09T01:20:44.233Z,55.90
2023-04-09T01:23:18.383Z,47.30
2023-04-09T01:25:55.275Z,50.58
2023-04-09T01:28:27.912Z,60.60
2023-04-09T01:31:01.148Z,52.83
2023-04-09T01:33:31.242Z,55.35
2023-04-09T01:36:00.885Z,63.45
2023-04-09T01:38:30.097Z,61.35
2023-04-09T01:40:59.760Z,60.70
2023-04-09T01:43:30.681Z,61.75
2023-04-09T01:46:00.697Z,64.28
2023-04-09T01:48:30.990Z,67.93
2023-04-09T01:51:00.304Z,68.13
2023-04-09T01:53:31.108Z,53.90
2023-04-09T01:56:01.310Z,71.55
2023-04-09T01:58:34.138Z,63.55
2023-04-09T02:01:07.212Z,61.63
2023-04-09T02:03:40.061Z,65.80
2023-04-09T02:06:11.390Z,67.47
2023-04-09T02:08:40.968Z,77.13
2023-04-09T02:11:12.443Z,68.93
2023-04-09T02:13:43.168Z,73.60
2023-04-09T02:16:13.278Z,69.03
2023-04-09T02:18:43.587Z,78.35
2023-04-09T02:21:13.919Z,73.50
2023-04-09T02:23:43.642Z,82.25
2023-04-09T02:26:12.759Z,72.38
2023-04-09T02:28:43.414Z,77.40
2023-04-09T02:31:13.315Z,68.45
2023-04-09T02:33:43.952Z,74.20
2023-04-09T02:36:13.647Z,70.20
2023-04-09T02:38:42.965Z,83.82
2023-04-09T02:41:13.011Z,73.53
2023-04-09T02:43:47.511Z,73.93
2023-04-09T02:46:17.335Z,64.32
2023-04-09T02:48:47.548Z,74.20
2023-04-09T02:51:17.283Z,74.45
2023-04-09T02:53:49.554Z,79.72
2023-04-09T02:56:20.416Z,78.85
2023-04-09T02:58:54.257Z,66.60
2023-04-09T03:01:24.608Z,80.75
2023-04-09T03:03:54.535Z,77.93
2023-04-09T03:06:23.880Z,78.47
2023-04-09T03:08:53.458Z,78.88
2023-04-09T03:11:25.487Z,75.07
2023-04-09T03:13:59.301Z,75.78
2023-04-09T03:16:28.528Z,74.32
2023-04-09T03:18:58.092Z,68.03
2023-04-09T03:21:27.620Z,67.15
2023-04-09T03:23:56.710Z,63.25
2023-04-09T03:26:25.897Z,68.45
2023-04-09T03:28:55.326Z,73.72
2023-04-09T03:31:25.858Z,74.45
2023-04-09T03:33:55.094Z,66.38
2023-04-09T03:36:24.433Z,76.18
2023-04-09T03:39:00.559Z,62.55
2023-04-09T03:41:48.116Z,69.63
2023-04-09T03:44:19.059Z,69.05
2023-04-09T03:47:10.442Z,74.57
2023-04-09T03:49:40.743Z,78.78
2023-04-09T03:52:30.353Z,72.90
2023-04-09T03:55:05.666Z,70.75
2023-04-09T03:57:35.639Z,77.97
2023-04-09T04:00:06.241Z,70.40
2023-04-09T04:02:54.054Z,70.82
2023-04-09T04:05:43.275Z,85.88
2023-04-09T04:08:17.147Z,74.55
2023-04-09T04:10:46.450Z,74.60
2023-04-09T04:13:19.179Z,68.75
2023-04-09T04:15:55.186Z,77.95
2023-04-09T04:18:27.256Z,76.32
2023-04-09T04:20:56.926Z,76.63
2023-04-09T04:23:26.463Z,79.80
2023-04-09T04:26:09.989Z,73.13
2023-04-09T04:28:39.958Z,75.03
2023-04-09T04:31:11.882Z,80.13
2023-04-09T04:33:44.799Z,76.47
2023-04-09T04:36:16.757Z,101.95
2023-04-09T04:38:52.889Z,135.15
2023-04-09T04:41:30.461Z,111.32
2023-04-09T04:44:10.596Z,122.60
2023-04-09T04:46:39.928Z,149.30
2023-04-09T04:49:11.105Z,110.10
2023-04-09T04:51:47.441Z,186.43
2023-04-09T04:54:18.238Z,114.38
2023-04-09T04:56:57.489Z,131.50
2023-04-09T04:59:42.270Z,119.78
2023-04-09T05:02:13.623Z,216.63
2023-04-09T05:04:55.004Z,130.85
2023-04-09T05:07:32.417Z,81.13
2023-04-09T05:10:01.770Z,63.58
2023-04-09T05:12:37.384Z,58.47
2023-04-09T05:15:08.218Z,54.55
2023-04-09T05:17:39.441Z,61.40
2023-04-09T05:20:12.457Z,54.15
2023-04-09T05:22:51.358Z,47.00
2023-04-09T05:25:23.858Z,58.95
2023-04-09T05:27:54.217Z,60.95
2023-04-09T05:30:23.795Z,58.75
2023-04-09T05:32:53.629Z,51.72
2023-04-09T05:35:25.337Z,52.80
2023-04-09T05:37:54.886Z,47.80
2023-04-09T05:40:27.624Z,59.25
2023-04-09T05:42:57.183Z,53.75
2023-04-09T05:45:39.936Z,49.80
2023-04-09T05:48:10.458Z,41.55
2023-04-09T05:50:54.112Z,78.70
2023-04-09T05:53:26.170Z,65.30
2023-04-09T05:55:55.523Z,52.63
2023-04-09T05:58:30.644Z,51.95
2023-04-09T06:01:01.015Z,55.00
2023-04-09T06:03:30.227Z,54.42
2023-04-09T06:06:01.248Z,67.85
2023-04-09T06:08:30.695Z,66.00
2023-04-09T06:11:00.081Z,69.95
2023-04-09T06:13:29.377Z,62.15
2023-04-09T06:15:58.942Z,67.40
2023-04-09T06:18:28.245Z,63.33
2023-04-09T06:21:04.747Z,73.15
2023-04-09T06:23:34.164Z,72.60
2023-04-09T06:26:04.102Z,75.53
2023-04-09T06:28:33.564Z,76.03
2023-04-09T06:31:02.768Z,128.60
2023-04-09T06:33:31.982Z,121.47
2023-04-09T06:36:01.576Z,94.53
2023-04-09T06:38:32.527Z,86.85
2023-04-09T06:41:01.504Z,92.10
2023-04-09T06:43:30.838Z,79.10
2023-04-09T06:46:00.945Z,129.00
2023-04-09T06:48:31.302Z,109.05
2023-04-09T06:51:00.965Z,98.07
2023-04-09T06:53:30.819Z,110.18
2023-04-09T06:56:01.307Z,99.53
2023-04-09T06:58:30.484Z,89.97
2023-04-09T07:01:00.063Z,111.68
2023-04-09T07:03:29.518Z,103.50
2023-04-09T07:05:59.057Z,102.53
2023-04-09T07:08:29.746Z,106.20
2023-04-09T07:11:00.105Z,76.47
2023-04-09T07:13:31.319Z,80.45
2023-04-09T07:16:01.304Z,70.67
2023-04-09T07:18:30.424Z,58.88
2023-04-09T07:20:59.535Z,58.20
2023-04-09T07:23:28.624Z,60.80
2023-04-09T07:25:57.940Z,58.17
2023-04-09T07:28:27.182Z,68.60
2023-04-09T07:30:57.679Z,52.10
2023-04-09T07:33:26.851Z,63.58
2023-04-09T07:35:56.347Z,61.38
2023-04-09T07:38:25.828Z,42.85
2023-04-09T07:40:54.988Z,66.93
2023-04-09T07:43:24.219Z,46.67
2023-04-09T07:45:53.311Z,42.03
2023-04-09T07:48:23.837Z,54.95
2023-04-09T07:50:53.075Z,43.08
2023-04-09T07:53:22.358Z,49.40
2023-04-09T07:55:55.224Z,80.15
2023-04-09T07:58:24.398Z,47.08
2023-04-09T08:00:53.441Z,44.33
2023-04-09T08:03:25.381Z,59.25
2023-04-09T08:05:54.499Z,49.67
2023-04-09T08:08:23.465Z,56.00
2023-04-09T08:10:52.734Z,51.33
2023-04-09T08:13:21.948Z,54.40
2023-04-09T08:15:50.950Z,48.20
2023-04-09T08:18:20.052Z,56.72
2023-04-09T08:20:50.577Z,54.63
2023-04-09T08:23:19.818Z,52.28
2023-04-09T08:25:51.295Z,55.63
2023-04-09T08:28:20.772Z,55.10
2023-04-09T08:30:52.150Z,52.45
2023-04-09T08:33:21.719Z,61.58
2023-04-09T08:36:03.584Z,57.78
2023-04-09T08:38:34.837Z,60.40
2023-04-09T08:41:04.791Z,67.63
2023-04-09T08:43:56.062Z,64.22
2023-04-09T08:46:24.941Z,64.97
2023-04-09T08:48:54.736Z,55.75
2023-04-09T08:51:25.720Z,59.58
2023-04-09T08:54:04.488Z,62.42
2023-04-09T08:56:40.464Z,64.18
2023-04-09T08:59:09.743Z,69.88
2023-04-09T09:01:39.201Z,79.05
2023-04-09T09:04:09.510Z,62.17
2023-04-09T09:06:39.466Z,71.63
2023-04-09T09:09:11.209Z,60.70
2023-04-09T09:11:41.282Z,60.20
2023-04-09T09:14:11.340Z,53.95
2023-04-09T09:16:43.258Z,56.47
2023-04-09T09:21:41.915Z,53.28
2023-04-09T09:24:19.601Z,58.75
2023-04-09T09:26:48.864Z,53.83
2023-04-09T09:29:18.138Z,44.60
2023-04-09T09:31:51.171Z,53.88
2023-04-09T09:34:20.893Z,42.75
2023-04-09T09:36:50.360Z,50.35
2023-04-09T09:39:22.411Z,44.65
2023-04-09T09:42:08.554Z,48.15
2023-04-09T09:44:37.976Z,55.28
2023-04-09T09:47:07.737Z,46.60
2023-04-09T09:49:36.969Z,41.28
2023-04-09T09:52:10.893Z,47.38
2023-04-09T09:54:43.448Z,47.97
2023-04-09T09:57:13.728Z,45.28
2023-04-09T09:59:43.605Z,42.83
2023-04-09T10:02:17.609Z,48.75
2023-04-09T10:04:47.239Z,49.90
2023-04-09T10:07:16.726Z,55.95
2023-04-09T10:09:49.646Z,42.90
2023-04-09T10:12:19.257Z,48.22
2023-04-09T10:14:50.098Z,44.28
2023-04-09T10:17:19.259Z,43.30
2023-04-09T10:19:51.419Z,48.38
2023-04-09T10:22:23.171Z,40.17
2023-04-09T10:24:58.097Z,38.55
2023-04-09T10:27:28.467Z,44.33
2023-04-09T10:29:57.953Z,34.85
2023-04-09T10:32:28.484Z,34.33
2023-04-09T10:34:59.540Z,40.15
2023-04-09T10:37:30.008Z,36.63
2023-04-09T10:40:05.282Z,43.42
2023-04-09T10:42:43.147Z,37.05
2023-04-09T10:45:13.018Z,36.45
2023-04-09T10:47:44.287Z,33.83
2023-04-09T10:50:17.955Z,32.22
2023-04-09T10:52:48.449Z,48.97
2023-04-09T10:55:39.885Z,36.92
2023-04-09T10:58:12.327Z,42.20
2023-04-09T11:00:46.301Z,42.33
2023-04-09T11:03:22.848Z,42.17
2023-04-09T11:06:03.326Z,44.13
2023-04-09T11:08:33.575Z,48.08
2023-04-09T11:11:04.350Z,38.95
2023-04-09T11:13:34.636Z,39.22
2023-04-09T11:16:07.000Z,39.90
2023-04-09T11:18:37.247Z,42.22
2023-04-09T11:21:06.884Z,35.70
2023-04-09T11:23:39.940Z,38.28
2023-04-09T11:26:14.331Z,41.92
2023-04-09T11:28:59.321Z,45.22
2023-04-09T11:31:30.575Z,37.90
2023-04-09T11:33:59.761Z,37.50
2023-04-09T11:36:29.138Z,36.10
2023-04-09T11:38:59.196Z,41.78
2023-04-09T11:41:36.846Z,37.00
2023-04-09T11:44:06.106Z,37.80
2023-04-09T11:46:35.690Z,36.88
2023-04-09T11:49:08.274Z,42.50
2023-04-09T11:51:38.784Z,44.33
2023-04-09T11:54:08.289Z,43.60
2023-04-09T11:56:39.662Z,40.92
2023-04-09T11:59:08.768Z,44.10
2023-04-09T12:01:38.084Z,35.28
2023-04-09T12:04:08.074Z,36.42
2023-04-09T12:06:42.833Z,38.03
2023-04-09T12:09:14.354Z,37.83
2023-04-09T12:11:46.625Z,42.40
2023-04-09T12:14:17.370Z,43.58
2023-04-09T12:16:47.610Z,35.13
2023-04-09T12:19:16.970Z,36.78
2023-04-09T12:21:50.106Z,36.53
2023-04-09T12:24:21.710Z,44.42
2023-04-09T12:26:52.493Z,36.50
2023-04-09T12:29:22.224Z,41.47
2023-04-09T12:31:51.260Z,39.40
2023-04-09T12:34:22.854Z,33.78
2023-04-09T12:36:52.429Z,46.45
2023-04-09T12:39:21.894Z,34.03
2023-04-09T12:41:54.517Z,42.58
2023-04-09T12:44:27.775Z,44.13
2023-04-09T12:46:57.325Z,38.33
2023-04-09T12:49:27.689Z,40.35
2023-04-09T12:51:56.918Z,37.38
2023-04-09T12:54:26.509Z,46.47
2023-04-09T12:56:57.310Z,43.75
2023-04-09T12:59:26.636Z,42.00
2023-04-09T13:01:58.392Z,42.80
2023-04-09T13:04:28.089Z,41.72
2023-04-09T13:07:00.968Z,35.60
2023-04-09T13:09:30.443Z,41.83
2023-04-09T13:12:02.530Z,40.33
2023-04-09T13:14:32.503Z,37.42
2023-04-09T13:17:02.063Z,41.80
2023-04-09T13:19:31.634Z,35.53
2023-04-09T13:22:01.168Z,40.80
2023-04-09T13:24:44.510Z,38.22
2023-04-09T13:27:16.569Z,40.70
2023-04-09T13:29:51.280Z,46.10
2023-04-09T13:32:24.640Z,40.60
2023-04-09T13:34:55.517Z,40.60
2023-04-09T13:37:27.342Z,39.83
2023-04-09T13:39:56.546Z,42.78
2023-04-09T13:42:29.648Z,39.20
2023-04-09T13:44:59.021Z,33.72
2023-04-09T13:47:30.688Z,31.40
2023-04-09T13:50:00.015Z,29.23
2023-04-09T13:52:29.734Z,33.60
2023-04-09T13:54:59.284Z,37.05
2023-04-09T13:57:29.923Z,33.00
2023-04-09T14:00:06.007Z,40.70
2023-04-09T14:02:35.533Z,36.33
2023-04-09T14:05:04.759Z,33.22
2023-04-09T14:07:34.292Z,32.53
2023-04-09T14:10:03.633Z,30.60
2023-04-09T14:12:34.351Z,36.35
2023-04-09T14:15:03.979Z,30.35
2023-04-09T14:17:33.090Z,32.75
2023-04-09T14:20:03.873Z,31.77
2023-04-09T14:22:43.124Z,31.67
2023-04-09T14:27:49.106Z,27.98
2023-04-09T14:30:19.680Z,31.42
2023-04-09T14:32:49.092Z,27.48
2023-04-09T14:35:22.757Z,29.95
2023-04-09T14:37:57.789Z,29.38
2023-04-09T14:40:27.505Z,29.08
2023-04-09T14:43:01.541Z,29.67
2023-04-09T14:45:31.522Z,30.20
2023-04-09T14:48:01.137Z,27.80
2023-04-09T14:50:33.991Z,31.95
2023-04-09T14:53:03.544Z,29.00
2023-04-09T14:55:33.427Z,31.00
2023-04-09T14:58:07.197Z,26.13
2023-04-09T15:00:37.244Z,30.35
2023-04-09T15:03:09.348Z,24.60
2023-04-09T15:05:38.858Z,25.35
2023-04-09T15:08:08.289Z,29.50
2023-04-09T15:10:39.210Z,33.67
2023-04-09T15:13:13.191Z,27.23
2023-04-09T15:15:45.125Z,30.30
2023-04-09T15:18:14.329Z,30.90
2023-04-09T15:20:45.893Z,38.40
2023-04-09T15:23:15.272Z,29.17
2023-04-09T15:25:44.879Z,33.03
2023-04-09T15:28:16.261Z,27.52
2023-04-09T15:30:46.488Z,28.70
2023-04-09T15:33:15.728Z,27.42
2023-04-09T15:35:44.818Z,29.33
2023-04-09T15:38:17.340Z,25.73
2023-04-09T15:40:46.914Z,31.85
2023-04-09T15:43:17.387Z,29.33
2023-04-09T15:45:48.726Z,32.63
2023-04-09T15:48:19.717Z,17.83
2023-04-09T15:50:49.024Z,31.60
2023-04-09T15:53:19.649Z,25.10
2023-04-09T15:55:49.415Z,29.35
2023-04-09T15:58:25.660Z,25.70
2023-04-09T16:00:55.033Z,34.35
2023-04-09T16:03:28.394Z,32.38
2023-04-09T16:06:02.081Z,27.50
2023-04-09T16:08:31.619Z,33.10
2023-04-09T16:11:01.130Z,32.38
2023-04-09T16:13:31.872Z,34.85
2023-04-09T16:16:03.718Z,39.25
2023-04-09T16:21:01.922Z,38.40
2023-04-09T16:23:34.191Z,37.28
2023-04-09T16:26:04.062Z,37.88
2023-04-09T16:28:34.745Z,44.95
2023-04-09T16:31:04.033Z,35.05
2023-04-09T16:33:36.888Z,38.78
2023-04-09T16:36:07.339Z,36.95
2023-04-09T16:38:36.621Z,37.35
2023-04-09T16:41:05.754Z,40.20
2023-04-09T16:43:36.597Z,55.47
2023-04-09T16:46:07.342Z,37.47
2023-04-09T16:48:41.755Z,42.80
2023-04-09T16:51:11.292Z,61.00
2023-04-09T16:53:41.256Z,34.88
2023-04-09T16:56:10.821Z,36.85
2023-04-09T16:58:41.628Z,35.75
2023-04-09T17:01:10.879Z,37.00
2023-04-09T17:03:40.245Z,27.52
2023-04-09T17:06:09.513Z,33.83
2023-04-09T17:08:39.885Z,33.70
2023-04-09T17:11:09.308Z,25.55
2023-04-09T17:13:38.726Z,33.58
2023-04-09T17:16:11.697Z,31.50
2023-04-09T17:18:40.961Z,24.48
2023-04-09T17:21:12.515Z,28.73
2023-04-09T17:23:42.675Z,31.38
2023-04-09T17:26:14.188Z,29.52
2023-04-09T17:28:43.705Z,26.35
2023-04-09T17:31:16.279Z,27.60
2023-04-09T17:33:48.135Z,25.38
2023-04-09T17:36:19.798Z,30.17
2023-04-09T17:38:52.480Z,26.90
2023-04-09T17:41:22.698Z,33.28
2023-04-09T17:43:52.256Z,27.65
2023-04-09T17:46:24.116Z,27.55
2023-04-09T17:48:56.648Z,29.10
2023-04-09T17:51:27.144Z,30.38
2023-04-09T17:53:56.720Z,29.75
2023-04-09T17:56:25.770Z,27.77
2023-04-09T17:58:55.060Z,27.77
2023-04-09T18:01:25.912Z,37.83
2023-04-09T18:03:59.100Z,41.35
2023-04-09T18:06:29.258Z,38.00
2023-04-09T18:08:58.467Z,30.63
2023-04-09T18:11:28.115Z,44.58
2023-04-09T18:13:57.126Z,50.85
2023-04-09T18:16:30.610Z,44.63
2023-04-09T18:18:59.812Z,38.60
2023-04-09T18:21:29.345Z,40.30
2023-04-09T18:23:58.895Z,44.03
2023-04-09T18:26:28.084Z,47.15
2023-04-09T18:29:00.915Z,38.10
2023-04-09T18:31:32.057Z,52.33
2023-04-09T18:34:01.647Z,40.58
2023-04-09T18:36:31.092Z,49.20
2023-04-09T18:39:00.158Z,44.70
2023-04-09T18:41:30.952Z,44.35
2023-04-09T18:44:00.210Z,39.13
2023-04-09T18:46:30.340Z,49.72
2023-04-09T18:49:10.376Z,39.70
2023-04-09T18:51:40.663Z,46.95
2023-04-09T18:54:10.105Z,38.95
2023-04-09T18:56:40.317Z,45.70
2023-04-09T18:59:09.639Z,41.85
2023-04-09T19:01:48.098Z,46.72
2023-04-09T19:04:37.343Z,85.10
2023-04-09T19:07:17.288Z,67.22
2023-04-09T19:09:46.793Z,62.70
2023-04-09T19:12:16.239Z,65.88
2023-04-09T19:14:45.873Z,46.95
2023-04-09T19:17:17.577Z,46.83
2023-04-09T19:19:57.471Z,39.80
2023-04-09T19:22:30.858Z,47.17
2023-04-09T19:25:00.469Z,44.95
2023-04-09T19:27:33.112Z,43.20
2023-04-09T19:30:02.316Z,41.40
2023-04-09T19:32:33.921Z,42.53
2023-04-09T19:35:05.049Z,43.05
2023-04-09T19:37:34.861Z,91.22
2023-04-09T19:40:04.702Z,40.70
2023-04-09T19:42:36.852Z,42.55
2023-04-09T19:45:06.771Z,46.50
2023-04-09T19:47:37.445Z,46.00
2023-04-09T19:50:08.514Z,41.17
2023-04-09T19:52:38.920Z,40.58
2023-04-09T19:55:09.158Z,39.75
2023-04-09T19:57:39.069Z,44.92
2023-04-09T20:00:08.835Z,35.60
2023-04-09T20:05:12.924Z,46.28
2023-04-09T20:07:43.432Z,41.25
2023-04-09T20:10:12.713Z,41.63
2023-04-09T20:12:44.891Z,38.25
2023-04-09T20:15:23.130Z,36.83
2023-04-09T20:17:59.393Z,36.05
2023-04-09T20:20:32.478Z,41.33
2023-04-09T20:23:01.911Z,46.47
2023-04-09T20:25:34.932Z,42.10
2023-04-09T20:28:09.913Z,41.50
2023-04-09T20:30:41.442Z,39.03
2023-04-09T20:33:11.780Z,45.13
2023-04-09T20:35:42.444Z,35.75
2023-04-09T20:38:11.664Z,39.70
2023-04-09T20:40:40.892Z,38.80
2023-04-09T20:43:10.036Z,45.17
2023-04-09T20:45:39.477Z,42.95
2023-04-09T20:48:08.755Z,35.10
2023-04-09T20:50:38.400Z,36.58
2023-04-09T20:53:18.163Z,35.55
2023-04-09T20:55:47.721Z,32.88
2023-04-09T20:58:17.044Z,33.95
2023-04-09T21:00:46.631Z,37.40
2023-04-09T21:03:18.749Z,33.47
2023-04-09T21:05:51.001Z,38.45
2023-04-09T21:08:24.257Z,34.58
2023-04-09T21:10:54.000Z,33.97
2023-04-09T21:13:23.299Z,37.60
2023-04-09T21:15:52.602Z,37.67
2023-04-09T21:18:22.454Z,36.83
2023-04-09T21:20:51.834Z,36.50
2023-04-09T21:23:21.018Z,35.05
2023-04-09T21:25:51.500Z,38.10
2023-04-09T21:28:27.740Z,32.30
2023-04-09T21:30:57.869Z,40.13
2023-04-09T21:33:28.628Z,41.58
2023-04-09T21:35:59.325Z,35.67
2023-04-09T21:38:28.948Z,39.65
2023-04-09T21:41:00.335Z,47.67
2023-04-09T21:43:30.458Z,38.90
2023-04-09T21:45:59.871Z,40.33
2023-04-09T21:48:30.754Z,43.67
2023-04-09T21:51:00.318Z,36.17
2023-04-09T21:53:29.472Z,34.28
2023-04-09T21:55:59.973Z,35.85
2023-04-09T21:58:29.353Z,42.22
2023-04-09T22:00:58.665Z,39.33
2023-04-09T22:03:31.366Z,41.30
2023-04-09T22:06:00.719Z,33.28
2023-04-09T22:08:34.091Z,40.15
2023-04-09T22:11:07.875Z,29.25
2023-04-09T22:13:36.857Z,26.80
2023-04-09T22:16:06.906Z,28.88
2023-04-09T22:18:36.978Z,35.53
2023-04-09T22:21:06.514Z,38.03
2023-04-09T22:23:35.907Z,34.65
2023-04-09T22:26:05.242Z,30.27
2023-04-09T22:28:35.968Z,27.75
2023-04-09T22:31:05.321Z,30.42
2023-04-09T22:33:34.451Z,32.22
2023-04-09T22:36:04.019Z,25.83
2023-04-09T22:38:33.170Z,32.40
2023-04-09T22:41:02.551Z,29.73
2023-04-09T22:43:31.684Z,26.17
2023-04-09T22:46:02.227Z,32.20
2023-04-09T22:48:44.879Z,30.90
2023-04-09T22:51:24.852Z,32.67
2023-04-09T22:53:54.024Z,48.08
2023-04-09T22:56:23.502Z,33.33
2023-04-09T22:58:52.904Z,22.15
2023-04-09T23:01:23.647Z,36.33
2023-04-09T23:03:52.658Z,36.45
2023-04-09T23:06:22.467Z,26.50
2023-04-09T23:08:52.402Z,42.60
2023-04-09T23:11:22.084Z,35.35
2023-04-09T23:13:51.418Z,32.20
2023-04-09T23:16:20.800Z,28.75
2023-04-09T23:18:52.212Z,43.85
2023-04-09T23:21:21.570Z,41.45
2023-04-09T23:23:50.713Z,37.17
2023-04-09T23:26:20.169Z,40.22
2023-04-09T23:28:49.717Z,45.28
2023-04-09T23:31:18.970Z,42.90
2023-04-09T23:33:48.358Z,39.00
2023-04-09T23:36:20.907Z,32.63
2023-04-09T23:38:53.539Z,38.15
2023-04-09T23:41:26.418Z,34.08
2023-04-09T23:43:56.485Z,33.53
2023-04-09T23:46:26.678Z,45.90
2023-04-09T23:48:55.727Z,37.08
2023-04-09T23:51:29.525Z,41.85
2023-04-09T23:54:02.893Z,33.95
2023-04-09T23:56:32.189Z,34.35
2023-04-09T23:59:01.357Z,32.60
